Time;durP1;ratioP1;P1;durP2;ratioP2;P2;SDS_P1;SDS_P2;PMS_P1;PMS_P2;Temp;Humidity;BMP_temperature;BMP_pressure;BME280_temperature;BME280_humidity;BME280_pressure;Samples;Min_cycle;Max_cycle;Signal;HPM_P1;HPM_P2
2021/11/16 00:00:10;;;;;;;31.67;16.60;;;2.40;99.90;;;;;;4109453;28;20661;-60
2021/11/16 00:02:12;;;;;;;46.63;21.17;;;2.20;99.90;;;;;;4106775;28;20272;-57
2021/11/16 00:04:13;;;;;;;37.13;18.73;;;2.20;99.90;;;;;;4108299;28;20272;-60
2021/11/16 00:06:14;;;;;;;29.93;15.47;;;2.10;99.90;;;;;;4108062;28;20661;-59
2021/11/16 00:08:15;;;;;;;39.33;17.80;;;2.10;99.90;;;;;;4120432;28;20331;-57
2021/11/16 00:10:16;;;;;;;31.53;17.70;;;2.10;99.90;;;;;;4124378;28;20664;-59
2021/11/16 00:12:18;;;;;;;34.73;16.80;;;2.00;99.90;;;;;;4124682;28;20296;-58
2021/11/16 00:14:19;;;;;;;32.03;15.93;;;2.00;99.90;;;;;;4124197;28;20660;-61
2021/11/16 00:16:20;;;;;;;38.70;17.50;;;1.90;99.90;;;;;;4124296;28;20830;-62
2021/11/16 00:18:26;;;;;;;36.43;16.87;;;1.80;99.90;;;;;;4123830;28;20324;-56
2021/11/16 00:20:28;;;;;;;35.10;16.80;;;1.70;99.90;;;;;;4123742;28;20883;-60
2021/11/16 00:22:29;;;;;;;42.53;21.00;;;1.60;99.90;;;;;;4114835;28;20692;-58
2021/11/16 00:24:46;;;;;;;42.53;21.10;;;1.40;99.90;;;;;;4107118;28;21124;-55
2021/11/16 00:26:47;;;;;;;37.40;17.80;;;1.30;99.90;;;;;;4107807;28;20261;-64
2021/11/16 00:28:49;;;;;;;36.60;18.63;;;1.20;99.90;;;;;;4108135;28;20324;-54
2021/11/16 00:30:50;;;;;;;36.40;17.77;;;1.20;99.90;;;;;;4107981;28;20253;-62
2021/11/16 00:32:52;;;;;;;35.03;18.27;;;1.20;99.90;;;;;;4107754;28;20662;-59
2021/11/16 00:34:53;;;;;;;32.60;16.47;;;1.10;99.90;;;;;;4115897;28;20280;-59
2021/11/16 00:36:54;;;;;;;35.43;17.80;;;1.10;99.90;;;;;;4123302;28;20668;-62
2021/11/16 00:38:56;;;;;;;34.57;17.30;;;1.00;99.90;;;;;;4124582;28;20327;-59
2021/11/16 00:40:57;;;;;;;31.97;16.70;;;0.90;99.90;;;;;;4122274;28;20269;-54
2021/11/16 00:42:59;;;;;;;35.67;15.40;;;0.90;99.90;;;;;;4108278;28;20670;-60
2021/11/16 00:45:01;;;;;;;35.33;18.37;;;0.80;99.90;;;;;;4107200;28;20323;-62
2021/11/16 00:47:02;;;;;;;30.90;16.97;;;0.90;99.90;;;;;;4107919;28;20265;-63
2021/11/16 00:49:03;;;;;;;33.07;15.60;;;0.80;99.90;;;;;;4107133;28;20359;-57
2021/11/16 00:51:06;;;;;;;29.57;15.63;;;0.80;99.90;;;;;;4106777;28;20265;-63
2021/11/16 00:53:08;;;;;;;34.00;16.57;;;0.70;99.90;;;;;;4107489;28;20300;-57
2021/11/16 00:55:10;;;;;;;35.30;16.03;;;0.80;99.90;;;;;;4107306;28;20990;-62
2021/11/16 00:57:11;;;;;;;32.07;16.03;;;0.70;99.90;;;;;;4110649;28;20863;-60
2021/11/16 00:59:12;;;;;;;32.50;15.33;;;0.80;99.90;;;;;;4123952;28;20272;-61
2021/11/16 01:01:13;;;;;;;30.43;14.97;;;0.80;99.90;;;;;;4123974;28;20746;-59
2021/11/16 01:03:16;;;;;;;34.00;16.67;;;0.80;99.90;;;;;;4123612;28;20684;-59
2021/11/16 01:05:17;;;;;;;34.47;15.97;;;0.80;99.90;;;;;;4123773;28;20284;-60
2021/11/16 01:07:19;;;;;;;32.23;16.07;;;0.80;99.90;;;;;;4122922;28;20268;-65
2021/11/16 01:09:20;;;;;;;31.77;15.93;;;0.80;99.90;;;;;;4116468;28;20276;-56
2021/11/16 01:11:21;;;;;;;33.23;13.63;;;0.70;99.90;;;;;;4106668;28;20671;-62
2021/11/16 01:13:24;;;;;;;31.20;16.10;;;0.70;99.90;;;;;;4106589;28;20284;-55
2021/11/16 01:15:26;;;;;;;34.50;16.73;;;0.70;99.90;;;;;;4106968;28;20328;-57
2021/11/16 01:17:27;;;;;;;31.33;15.87;;;0.60;99.90;;;;;;4107341;28;20306;-59
2021/11/16 01:19:28;;;;;;;30.27;14.77;;;0.60;99.90;;;;;;4108176;28;20327;-63
2021/11/16 01:21:29;;;;;;;34.37;17.17;;;0.60;99.90;;;;;;4107098;28;20328;-57
2021/11/16 01:23:31;;;;;;;32.20;16.23;;;0.60;99.90;;;;;;4106993;28;20328;-61
2021/11/16 01:25:37;;;;;;;32.27;16.50;;;0.60;99.90;;;;;;4107470;28;20256;-60
2021/11/16 01:27:39;;;;;;;35.90;16.60;;;0.60;99.90;;;;;;4107072;28;20273;-58
2021/11/16 01:29:41;;;;;;;34.97;17.63;;;0.60;99.90;;;;;;4107737;28;20347;-60
2021/11/16 01:31:43;;;;;;;35.63;17.57;;;0.50;99.90;;;;;;4107290;28;20281;-59
2021/11/16 01:33:55;;;;;;;34.53;16.57;;;0.60;99.90;;;;;;4106552;28;20285;-63
2021/11/16 01:35:57;;;;;;;30.90;16.03;;;0.60;99.90;;;;;;4107911;28;20347;-60
2021/11/16 01:37:58;;;;;;;29.63;16.13;;;0.60;99.90;;;;;;4107158;28;20408;-58
2021/11/16 01:40:00;;;;;;;38.00;18.33;;;0.60;99.90;;;;;;4107196;28;20261;-57
2021/11/16 01:42:02;;;;;;;36.20;16.33;;;0.60;99.90;;;;;;4106666;28;20284;-59
2021/11/16 01:44:03;;;;;;;35.47;17.20;;;0.60;99.90;;;;;;4106779;28;20288;-58
2021/11/16 01:46:09;;;;;;;38.47;16.47;;;0.60;99.90;;;;;;4106721;28;20277;-66
2021/11/16 01:48:10;;;;;;;31.53;16.17;;;0.60;99.90;;;;;;4108778;28;20327;-59
2021/11/16 01:50:14;;;;;;;34.70;16.87;;;0.60;99.90;;;;;;4106789;28;20355;-56
2021/11/16 01:52:16;;;;;;;34.17;18.17;;;0.70;99.90;;;;;;4107162;28;20697;-62
2021/11/16 01:54:17;;;;;;;38.37;18.00;;;0.60;99.90;;;;;;4106885;28;20264;-59
2021/11/16 01:56:18;;;;;;;34.80;18.13;;;0.60;99.90;;;;;;4107451;28;20335;-60
2021/11/16 01:58:20;;;;;;;33.70;19.23;;;0.40;99.90;;;;;;4107221;28;20304;-59
2021/11/16 02:00:39;;;;;;;35.57;16.87;;;0.40;99.90;;;;;;4106999;28;20289;-64
2021/11/16 02:02:40;;;;;;;32.90;17.13;;;0.30;99.90;;;;;;4107197;28;20335;-63
2021/11/16 02:04:42;;;;;;;37.60;18.13;;;0.20;99.90;;;;;;4106959;28;20288;-64
2021/11/16 02:06:44;;;;;;;32.73;16.23;;;0.10;99.90;;;;;;4106421;28;21080;-57
2021/11/16 02:08:46;;;;;;;35.93;15.77;;;0.10;99.90;;;;;;4107304;28;20277;-58
2021/11/16 02:10:50;;;;;;;39.57;20.97;;;0.10;99.90;;;;;;4107174;28;20331;-62
2021/11/16 02:12:52;;;;;;;39.40;20.63;;;0.00;99.90;;;;;;4106835;28;20296;-60
2021/11/16 02:14:53;;;;;;;37.57;19.00;;;-0.10;99.90;;;;;;4106683;28;20340;-60
2021/11/16 02:16:54;;;;;;;42.07;20.00;;;-0.10;99.90;;;;;;4107531;28;20300;-62
2021/11/16 02:18:55;;;;;;;35.07;17.20;;;-0.10;99.90;;;;;;4113669;28;20284;-61
2021/11/16 02:20:57;;;;;;;48.00;18.00;;;-0.10;99.90;;;;;;4122130;28;20283;-61
2021/11/16 02:22:58;;;;;;;44.67;17.67;;;-0.10;99.90;;;;;;4114447;28;20355;-60
2021/11/16 02:25:00;;;;;;;36.97;16.67;;;-0.20;99.90;;;;;;4105775;28;20281;-59
2021/11/16 02:27:01;;;;;;;33.40;15.70;;;-0.30;99.90;;;;;;4111792;28;20339;-58
2021/11/16 02:29:04;;;;;;;34.17;16.20;;;-0.30;99.90;;;;;;4109192;28;20347;-65
2021/11/16 02:31:05;;;;;;;32.57;15.90;;;-0.30;99.90;;;;;;4110691;28;20261;-58
2021/11/16 02:33:07;;;;;;;36.43;15.70;;;-0.30;99.90;;;;;;4109141;28;20301;-61
2021/11/16 02:35:19;;;;;;;31.70;15.23;;;-0.30;99.90;;;;;;4109706;28;20293;-67
2021/11/16 02:37:20;;;;;;;35.30;17.03;;;-0.20;99.90;;;;;;4109564;28;20273;-61
2021/11/16 02:39:21;;;;;;;34.20;16.67;;;-0.20;99.90;;;;;;4109517;28;20745;-60
2021/11/16 02:41:29;;;;;;;33.40;15.43;;;-0.20;99.90;;;;;;4118835;28;20350;-65
2021/11/16 02:43:33;;;;;;;29.63;14.53;;;-0.20;99.90;;;;;;4124847;28;20362;-61
2021/11/16 02:45:36;;;;;;;33.87;16.70;;;-0.10;99.90;;;;;;4124036;28;20338;-61
2021/11/16 02:47:38;;;;;;;37.80;17.50;;;-0.10;99.90;;;;;;4125993;28;20272;-60
2021/11/16 02:49:42;;;;;;;35.53;15.17;;;-0.20;99.90;;;;;;4125683;28;20331;-61
2021/11/16 02:51:43;;;;;;;41.23;19.07;;;-0.20;99.90;;;;;;4125947;28;20335;-62
2021/11/16 02:53:44;;;;;;;36.93;17.00;;;-0.20;99.90;;;;;;4125807;28;20292;-60
2021/11/16 02:55:47;;;;;;;43.07;19.10;;;-0.20;99.90;;;;;;4124466;28;20280;-61
2021/11/16 02:57:48;;;;;;;44.30;19.03;;;-0.30;99.90;;;;;;4125392;28;20284;-60
2021/11/16 02:59:50;;;;;;;40.17;18.87;;;-0.30;99.90;;;;;;4125961;28;20268;-59
2021/11/16 03:01:51;;;;;;;44.80;18.77;;;-0.30;99.90;;;;;;4125721;28;20345;-62
2021/11/16 03:03:52;;;;;;;40.47;18.83;;;-0.40;99.90;;;;;;4124408;28;20280;-60
2021/11/16 03:05:53;;;;;;;38.73;18.43;;;-0.30;99.90;;;;;;4125968;28;20815;-65
2021/11/16 03:07:56;;;;;;;39.00;19.83;;;-0.30;99.90;;;;;;4125132;28;20688;-60
2021/11/16 03:09:58;;;;;;;36.23;17.47;;;-0.30;99.90;;;;;;4125514;28;20700;-57
2021/11/16 03:12:01;;;;;;;39.07;19.03;;;-0.30;99.90;;;;;;4122219;28;20338;-54
2021/11/16 03:14:02;;;;;;;36.30;19.33;;;-0.30;99.90;;;;;;4110250;28;20350;-62
2021/11/16 03:16:11;;;;;;;33.13;16.57;;;-0.30;99.90;;;;;;4109048;28;20331;-58
2021/11/16 03:18:13;;;;;;;37.40;17.90;;;-0.20;99.90;;;;;;4108846;28;20285;-58
2021/11/16 03:20:16;;;;;;;36.30;17.63;;;-0.20;99.90;;;;;;4108755;28;20347;-64
2021/11/16 03:22:18;;;;;;;39.30;17.87;;;-0.20;99.90;;;;;;4108804;28;20689;-63
2021/11/16 03:24:20;;;;;;;40.87;17.73;;;-0.20;99.90;;;;;;4122338;28;20280;-64
2021/11/16 03:26:24;;;;;;;36.63;17.63;;;-0.20;99.90;;;;;;4124623;28;20830;-60
2021/11/16 03:28:28;;;;;;;33.87;17.17;;;-0.20;99.90;;;;;;4109743;28;20327;-58
2021/11/16 03:30:30;;;;;;;33.90;16.27;;;-0.20;99.90;;;;;;4109383;28;20316;-58
2021/11/16 03:32:35;;;;;;;38.47;17.70;;;-0.20;99.90;;;;;;4109193;28;20343;-59
2021/11/16 03:34:36;;;;;;;38.33;17.60;;;-0.30;99.90;;;;;;4107596;28;20268;-56
2021/11/16 03:36:37;;;;;;;40.77;18.20;;;-0.30;99.90;;;;;;4108377;28;20605;-60
2021/11/16 03:38:40;;;;;;;33.93;16.40;;;-0.30;99.90;;;;;;4108678;28;20265;-59
2021/11/16 03:40:42;;;;;;;34.33;17.10;;;-0.30;99.90;;;;;;4109122;28;20323;-57
2021/11/16 03:42:46;;;;;;;38.33;17.40;;;-0.30;99.90;;;;;;4108977;28;20273;-60
2021/11/16 03:44:48;;;;;;;35.63;17.77;;;-0.30;99.90;;;;;;4108711;28;20339;-56
2021/11/16 03:46:49;;;;;;;37.83;18.53;;;-0.40;99.90;;;;;;4108029;28;20327;-63
2021/11/16 03:48:51;;;;;;;40.53;19.83;;;-0.40;99.90;;;;;;4109368;28;20327;-60
2021/11/16 03:50:53;;;;;;;37.80;17.87;;;-0.40;99.90;;;;;;4108057;28;20261;-64
2021/11/16 03:52:56;;;;;;;37.37;18.50;;;-0.50;99.90;;;;;;4108604;28;20347;-63
2021/11/16 03:54:58;;;;;;;39.77;19.27;;;-0.50;99.90;;;;;;4108530;28;20264;-57
2021/11/16 03:57:01;;;;;;;42.13;19.17;;;-0.60;99.90;;;;;;4123859;28;20284;-57
2021/11/16 03:59:03;;;;;;;37.50;18.63;;;-0.60;99.90;;;;;;4123574;28;20326;-60
2021/11/16 04:01:07;;;;;;;35.27;17.57;;;-0.70;99.90;;;;;;4124464;28;20697;-60
2021/11/16 04:03:10;;;;;;;40.43;17.97;;;-0.70;99.90;;;;;;4124344;28;20280;-58
2021/11/16 04:05:12;;;;;;;39.37;17.67;;;-0.70;99.90;;;;;;4124458;28;20276;-61
2021/11/16 04:07:13;;;;;;;39.40;18.10;;;-0.70;99.90;;;;;;4124405;28;20277;-60
2021/11/16 04:09:16;;;;;;;39.53;18.70;;;-0.80;99.90;;;;;;4121599;28;20271;-59
2021/11/16 04:11:17;;;;;;;42.33;18.87;;;-0.90;99.90;;;;;;4108920;28;20280;-60
2021/11/16 04:13:18;;;;;;;40.27;19.23;;;-1.00;99.90;;;;;;4107567;28;20710;-66
2021/11/16 04:15:22;;;;;;;42.67;19.33;;;-1.00;99.90;;;;;;4108296;28;20285;-60
2021/11/16 04:17:23;;;;;;;38.03;18.00;;;-1.10;99.90;;;;;;4114615;28;20292;-63
2021/11/16 04:19:24;;;;;;;38.30;18.43;;;-1.10;99.90;;;;;;4124533;28;20307;-69
2021/11/16 04:21:26;;;;;;;40.27;18.17;;;-1.00;99.90;;;;;;4123192;28;20272;-61
2021/11/16 04:23:27;;;;;;;36.90;17.63;;;-1.10;99.90;;;;;;4124319;28;20264;-60
2021/11/16 04:25:29;;;;;;;41.97;18.67;;;-1.00;99.90;;;;;;4123937;28;20315;-60
2021/11/16 04:27:30;;;;;;;45.47;18.87;;;-1.00;99.90;;;;;;4124737;28;20326;-62
2021/11/16 04:29:32;;;;;;;39.03;18.47;;;-1.00;99.90;;;;;;4124251;28;20671;-60
2021/11/16 04:31:33;;;;;;;42.77;19.63;;;-1.10;99.90;;;;;;4123746;28;20280;-59
2021/11/16 04:33:35;;;;;;;42.70;18.73;;;-1.10;99.90;;;;;;4124020;28;20300;-60
2021/11/16 04:35:37;;;;;;;42.00;19.30;;;-1.10;99.90;;;;;;4123154;28;21063;-59
2021/11/16 04:37:40;;;;;;;44.57;19.33;;;-1.10;99.90;;;;;;4123824;28;20330;-59
2021/11/16 04:39:42;;;;;;;53.67;22.53;;;-1.10;99.90;;;;;;4123506;28;20268;-61
2021/11/16 04:41:44;;;;;;;50.10;22.40;;;-1.10;99.90;;;;;;4124084;28;20280;-64
2021/11/16 04:43:45;;;;;;;43.90;21.40;;;-1.20;99.90;;;;;;4122053;28;20304;-61
2021/11/16 04:45:54;;;;;;;55.57;22.10;;;-1.20;99.90;;;;;;4123606;28;20367;-61
2021/11/16 04:48:21;;;;;;;45.10;20.33;;;-1.30;99.90;;;;;;4104686;28;20276;-58
2021/11/16 05:04:19;;;;;;;55.77;25.97;;;-1.40;99.90;;;;;;4115599;28;20874;-58
2021/11/16 05:06:21;;;;;;;58.37;27.83;;;-1.50;99.90;;;;;;4122788;28;20728;-59
2021/11/16 05:08:22;;;;;;;57.87;26.90;;;-1.40;99.90;;;;;;4122464;28;20285;-59
2021/11/16 05:10:24;;;;;;;58.70;27.53;;;-1.40;99.90;;;;;;4122189;28;20999;-65
2021/11/16 05:12:27;;;;;;;67.73;30.27;;;-1.50;99.90;;;;;;4122227;28;20648;-63
2021/11/16 05:14:28;;;;;;;66.07;29.13;;;-1.60;99.90;;;;;;4123001;28;20342;-61
2021/11/16 05:16:29;;;;;;;66.10;30.53;;;-1.60;99.90;;;;;;4123047;28;20717;-59
2021/11/16 05:18:31;;;;;;;64.87;29.10;;;-1.60;99.90;;;;;;4122521;28;20338;-62
2021/11/16 05:20:32;;;;;;;66.80;28.87;;;-1.60;99.90;;;;;;4122812;28;20294;-58
2021/11/16 05:22:33;;;;;;;65.77;28.70;;;-1.60;99.90;;;;;;4121948;28;20273;-61
2021/11/16 05:24:35;;;;;;;63.93;30.93;;;-1.70;99.90;;;;;;4122913;28;20280;-62
2021/11/16 05:26:37;;;;;;;63.67;28.47;;;-1.70;99.90;;;;;;4122073;28;20252;-63
2021/11/16 05:28:38;;;;;;;56.10;27.23;;;-1.70;99.90;;;;;;4123098;28;20338;-65
2021/11/16 05:30:39;;;;;;;55.67;27.93;;;-1.70;99.90;;;;;;4123178;28;20275;-68
2021/11/16 05:32:42;;;;;;;68.03;27.70;;;-1.70;99.90;;;;;;4123239;28;20295;-64
2021/11/16 05:34:44;;;;;;;61.87;26.53;;;-1.70;99.90;;;;;;4122356;28;20303;-60
2021/11/16 05:36:45;;;;;;;57.03;26.53;;;-1.80;99.90;;;;;;4123269;28;20342;-60
2021/11/16 05:38:47;;;;;;;61.57;27.70;;;-1.80;99.90;;;;;;4121864;28;20284;-58
2021/11/16 05:40:48;;;;;;;59.60;26.73;;;-1.80;99.90;;;;;;4122610;28;20322;-65
2021/11/16 05:42:50;;;;;;;58.93;25.47;;;-1.70;99.90;;;;;;4122783;28;20838;-66
2021/11/16 05:44:52;;;;;;;59.37;25.47;;;-1.70;99.90;;;;;;4122772;28;20284;-62
2021/11/16 05:46:53;;;;;;;59.10;28.10;;;-1.70;99.90;;;;;;4122895;28;20859;-57
2021/11/16 05:48:56;;;;;;;60.70;27.03;;;-1.60;99.90;;;;;;4122624;28;20378;-57
2021/11/16 05:50:57;;;;;;;59.53;27.67;;;-1.50;99.90;;;;;;4123388;28;20342;-63
2021/11/16 05:52:59;;;;;;;61.90;26.97;;;-1.50;99.90;;;;;;4121937;28;20268;-61
2021/11/16 05:55:00;;;;;;;69.47;31.10;;;-1.30;99.90;;;;;;4122981;28;20385;-61
2021/11/16 05:57:05;;;;;;;82.37;34.83;;;-1.10;99.90;;;;;;4122738;28;20286;-62
2021/11/16 05:59:07;;;;;;;78.03;31.30;;;-0.90;99.90;;;;;;4120207;28;20898;-61
2021/11/16 06:01:08;;;;;;;69.67;32.00;;;-0.70;99.90;;;;;;4122959;28;20334;-63
2021/11/16 06:03:10;;;;;;;62.63;29.53;;;-0.70;99.90;;;;;;4126038;28;20322;-61
2021/11/16 06:05:11;;;;;;;69.87;29.37;;;-0.70;99.90;;;;;;4123790;28;20280;-58
2021/11/16 06:07:13;;;;;;;59.10;26.23;;;-0.60;99.90;;;;;;4125132;28;20280;-64
2021/11/16 06:09:14;;;;;;;56.53;26.63;;;-0.50;99.90;;;;;;4125578;28;20276;-59
2021/11/16 06:11:17;;;;;;;50.37;25.10;;;-0.50;99.90;;;;;;4126013;28;20295;-62
2021/11/16 06:13:18;;;;;;;57.93;26.60;;;-0.40;99.90;;;;;;4124439;28;20308;-61
2021/11/16 06:15:20;;;;;;;56.23;26.53;;;-0.20;99.90;;;;;;4120866;28;20338;-61
2021/11/16 06:17:22;;;;;;;55.57;28.43;;;0.00;99.90;;;;;;4125719;28;20283;-62
2021/11/16 06:19:25;;;;;;;54.30;26.60;;;0.40;99.90;;;;;;4124125;28;20288;-62
2021/11/16 06:21:28;;;;;;;52.87;26.37;;;0.50;99.90;;;;;;4119087;28;20284;-64
2021/11/16 06:23:29;;;;;;;50.27;24.83;;;0.70;99.90;;;;;;4125660;28;20292;-59
2021/11/16 06:25:31;;;;;;;42.67;22.90;;;1.00;99.90;;;;;;4125137;28;20717;-62
2021/11/16 06:27:32;;;;;;;50.37;25.57;;;1.10;99.90;;;;;;4124971;28;20276;-60
2021/11/16 06:29:34;;;;;;;54.27;25.40;;;1.30;99.90;;;;;;4116701;28;20347;-60
2021/11/16 06:31:35;;;;;;;44.13;23.10;;;1.40;99.90;;;;;;4109318;28;20343;-61
2021/11/16 06:33:36;;;;;;;38.10;20.63;;;1.60;99.90;;;;;;4109547;28;20548;-62
2021/11/16 06:35:38;;;;;;;44.37;20.50;;;1.80;99.90;;;;;;4109499;28;20269;-62
2021/11/16 06:37:39;;;;;;;41.70;19.33;;;2.00;99.90;;;;;;4109835;28;20686;-63
2021/11/16 06:39:40;;;;;;;37.30;18.93;;;2.10;99.90;;;;;;4109174;28;20285;-63
2021/11/16 06:41:42;;;;;;;38.43;18.23;;;2.30;99.90;;;;;;4108949;28;20332;-64
2021/11/16 06:43:43;;;;;;;33.90;18.07;;;2.60;99.90;;;;;;4109244;28;20319;-61
2021/11/16 06:45:45;;;;;;;60.03;31.30;;;2.90;99.90;;;;;;4109173;28;20427;-60
2021/11/16 06:47:46;;;;;;;57.27;25.63;;;2.80;99.90;;;;;;4108674;28;20384;-60
2021/11/16 06:49:49;;;;;;;35.03;18.43;;;2.60;99.90;;;;;;4108962;28;20765;-63
2021/11/16 06:51:52;;;;;;;37.23;19.67;;;2.60;99.90;;;;;;4107219;28;20816;-64
2021/11/16 06:53:53;;;;;;;37.73;18.97;;;2.50;99.90;;;;;;4108647;28;20300;-62
2021/11/16 06:55:55;;;;;;;37.43;19.73;;;2.70;99.90;;;;;;4108405;28;20323;-64
2021/11/16 06:57:58;;;;;;;34.53;19.47;;;2.80;99.90;;;;;;4107919;28;20359;-61
2021/11/16 07:00:00;;;;;;;38.80;21.10;;;3.10;99.90;;;;;;4109625;28;20280;-65
2021/11/16 07:02:01;;;;;;;42.67;19.83;;;3.50;99.90;;;;;;4109075;28;20618;-62
2021/11/16 07:04:10;;;;;;;37.03;21.13;;;3.80;99.90;;;;;;4109335;28;20273;-65
2021/11/16 07:06:11;;;;;;;34.47;19.13;;;4.00;99.90;;;;;;4108578;28;20315;-64
2021/11/16 07:08:13;;;;;;;41.87;22.57;;;4.30;99.90;;;;;;4109219;28;20269;-62
2021/11/16 07:10:19;;;;;;;41.13;21.77;;;4.50;99.90;;;;;;4108409;28;20484;-61
2021/11/16 07:12:25;;;;;;;38.03;21.63;;;4.80;99.90;;;;;;4107748;28;20101;-60
2021/11/16 07:14:36;;;;;;;41.13;23.17;;;5.00;99.90;;;;;;4107714;28;20055;-60
2021/11/16 07:16:39;;;;;;;44.23;21.87;;;5.10;99.90;;;;;;4109132;28;20057;-61
2021/11/16 07:18:49;;;;;;;43.43;22.77;;;5.20;99.90;;;;;;4106653;28;20117;-60
2021/11/16 07:20:58;;;;;;;37.35;19.90;;;5.30;99.90;;;;;;4109581;28;20057;-61
2021/11/16 07:23:00;;;;;;;36.53;20.07;;;5.40;99.90;;;;;;4108550;28;20463;-61
2021/11/16 07:25:05;;;;;;;37.03;20.10;;;5.50;99.90;;;;;;4108127;28;20464;-61
2021/11/16 07:27:07;;;;;;;42.40;20.50;;;5.50;99.90;;;;;;4108214;28;20078;-62
2021/11/16 07:29:13;;;;;;;38.33;20.20;;;5.60;99.90;;;;;;4107512;28;20253;-60
2021/11/16 07:31:22;;;;;;;43.03;22.57;;;5.60;99.90;;;;;;4109095;28;20545;-61
2021/11/16 07:33:24;;;;;;;38.97;18.40;;;5.40;99.90;;;;;;4108160;28;20039;-62
2021/11/16 07:35:27;;;;;;;31.83;17.40;;;5.40;99.90;;;;;;4108906;28;20035;-62
2021/11/16 07:37:40;;;;;;;32.80;19.30;;;5.40;99.90;;;;;;4108876;28;20027;-61
2021/11/16 07:40:07;;;;;;;36.73;18.20;;;5.20;99.90;;;;;;4108273;28;20273;-63
2021/11/16 07:42:09;;;;;;;32.37;17.47;;;5.00;99.90;;;;;;4107915;28;20273;-61
2021/11/16 07:44:12;;;;;;;33.10;18.80;;;4.60;99.90;;;;;;4108489;28;20281;-64
2021/11/16 07:46:13;;;;;;;37.77;18.23;;;4.60;99.90;;;;;;4108298;28;20709;-64
2021/11/16 07:48:20;;;;;;;35.67;17.33;;;4.60;99.90;;;;;;4108701;28;20284;-65
2021/11/16 07:50:30;;;;;;;35.20;18.63;;;4.40;99.90;;;;;;4108322;28;20339;-67
2021/11/16 07:52:32;;;;;;;30.55;15.73;;;4.20;99.90;;;;;;4108703;28;20326;-64
2021/11/16 07:54:33;;;;;;;31.27;16.83;;;4.30;99.90;;;;;;4108042;28;20035;-62
2021/11/16 07:56:35;;;;;;;32.17;17.50;;;4.20;99.90;;;;;;4107922;28;20665;-63
2021/11/16 07:58:40;;;;;;;31.77;17.80;;;4.10;99.90;;;;;;4108361;28;20342;-61
2021/11/16 08:00:47;;;;;;;31.30;17.27;;;4.20;99.90;;;;;;4109037;28;20689;-61
2021/11/16 08:02:53;;;;;;;31.43;16.63;;;4.30;99.90;;;;;;4107549;28;20288;-60
2021/11/16 08:05:35;;;;;;;38.37;18.13;;;4.40;99.90;;;;;;4108882;28;20277;-60
2021/11/16 08:07:32;;;;;;;32.47;16.33;;;4.40;99.90;;;;;;4105541;28;20781;-66
2021/11/16 08:13:55;;;;;;;32.17;18.67;;;4.50;99.90;;;;;;4108244;28;20359;-64
2021/11/16 08:16:10;;;;;;;32.67;19.23;;;4.50;99.90;;;;;;4107721;28;20320;-64
2021/11/16 08:18:15;;;;;;;32.00;17.93;;;4.70;99.90;;;;;;4108271;28;20363;-63
2021/11/16 08:20:16;;;;;;;36.30;18.60;;;4.80;99.90;;;;;;4107446;28;20331;-60
2021/11/16 08:22:19;;;;;;;33.33;18.73;;;4.80;99.90;;;;;;4107517;28;20368;-61
2021/11/16 08:24:21;;;;;;;35.17;19.40;;;4.90;99.90;;;;;;4106699;28;20268;-60
2021/11/16 08:26:25;;;;;;;34.67;17.57;;;4.90;99.90;;;;;;4108003;28;20355;-63
2021/11/16 08:28:26;;;;;;;30.37;16.17;;;5.00;99.90;;;;;;4106203;28;20285;-61
2021/11/16 08:30:28;;;;;;;34.07;16.60;;;5.00;99.90;;;;;;4108276;28;20331;-61
2021/11/16 08:32:39;;;;;;;34.03;17.60;;;5.10;99.90;;;;;;4106579;28;20265;-62
2021/11/16 08:34:43;;;;;;;34.33;16.98;;;5.20;99.90;;;;;;4107793;28;20297;-64
2021/11/16 08:36:51;;;;;;;27.70;16.70;;;5.30;99.90;;;;;;4106906;28;20101;-62
2021/11/16 08:38:56;;;;;;;33.83;17.83;;;5.40;99.90;;;;;;4108353;28;20257;-69
2021/11/16 08:40:58;;;;;;;34.97;18.13;;;5.40;99.90;;;;;;4107061;28;20587;-60
2021/11/16 08:43:12;;;;;;;36.40;18.97;;;5.60;99.90;;;;;;4107258;28;20268;-61
2021/11/16 08:45:17;;;;;;;32.77;16.73;;;5.70;99.90;;;;;;4106813;28;20332;-64
2021/11/16 08:47:19;;;;;;;34.03;17.37;;;5.70;99.90;;;;;;4107820;28;20268;-68
2021/11/16 08:49:27;;;;;;;51.13;17.90;;;5.90;99.90;;;;;;4106479;28;20347;-62
2021/11/16 08:51:39;;;;;;;36.57;17.10;;;6.10;99.90;;;;;;4107072;28;20339;-66
2021/11/16 08:53:41;;;;;;;35.60;16.73;;;6.40;99.90;;;;;;4106646;28;20313;-62
2021/11/16 08:55:43;;;;;;;36.67;17.17;;;6.50;99.90;;;;;;4107250;28;20288;-62
2021/11/16 08:57:48;;;;;;;38.20;18.13;;;6.60;99.90;;;;;;4107198;28;20285;-62
2021/11/16 08:59:49;;;;;;;37.17;18.03;;;6.70;99.90;;;;;;4107256;28;20285;-62
2021/11/16 09:02:01;;;;;;;49.87;17.50;;;6.90;99.90;;;;;;4107911;28;20401;-64
2021/11/16 09:04:04;;;;;;;38.90;16.80;;;7.00;99.90;;;;;;4107145;28;20323;-60
2021/11/16 09:06:18;;;;;;;36.17;16.90;;;7.10;99.90;;;;;;4106828;28;20939;-63
2021/11/16 09:08:32;;;;;;;29.70;16.33;;;7.20;99.90;;;;;;4107343;28;20579;-64
2021/11/16 09:10:40;;;;;;;27.43;15.37;;;7.40;99.90;;;;;;4106927;28;20327;-63
2021/11/16 09:12:51;;;;;;;27.13;14.37;;;7.60;99.90;;;;;;4106658;28;20050;-63
2021/11/16 09:14:54;;;;;;;23.93;12.73;;;7.80;99.90;;;;;;4107325;28;20077;-66
2021/11/16 09:16:56;;;;;;;26.10;11.80;;;8.10;99.90;;;;;;4106738;28;20101;-63
2021/11/16 09:18:58;;;;;;;20.80;11.27;;;8.40;99.90;;;;;;4106414;28;20043;-62
2021/11/16 09:21:13;;;;;;;22.70;11.53;;;8.60;99.90;;;;;;4106331;28;20050;-61
2021/11/16 09:23:30;;;;;;;20.57;10.60;;;8.80;99.90;;;;;;4106460;28;20494;-61
2021/11/16 09:25:35;;;;;;;21.47;11.97;;;8.90;99.90;;;;;;4106337;28;20026;-66
2021/11/16 09:27:43;;;;;;;18.10;10.80;;;8.90;99.90;;;;;;4106729;28;20491;-66
2021/11/16 09:29:48;;;;;;;19.50;11.10;;;9.00;99.90;;;;;;4107091;28;20033;-61
2021/11/16 09:32:05;;;;;;;18.67;10.87;;;9.00;99.90;;;;;;4107300;28;20030;-64
2021/11/16 09:34:16;;;;;;;19.47;11.10;;;9.10;99.90;;;;;;4106460;28;20726;-66
2021/11/16 09:36:28;;;;;;;;;;;9.10;99.90;;;;;;4107386;28;20034;-61
2021/11/16 09:38:44;;;;;;;22.00;10.93;;;9.10;99.90;;;;;;4106627;28;19965;-61
2021/11/16 09:40:49;;;;;;;21.97;10.87;;;9.10;99.90;;;;;;4106733;28;20031;-61
2021/11/16 09:42:50;;;;;;;38.03;11.00;;;9.10;99.90;;;;;;4106523;28;20031;-61
2021/11/16 09:44:55;;;;;;;19.10;10.83;;;9.10;99.90;;;;;;4106752;28;20097;-61
2021/11/16 09:47:00;;;;;;;21.13;11.33;;;9.10;99.90;;;;;;4106622;28;20073;-65
2021/11/16 09:49:03;;;;;;;19.87;10.27;;;9.20;99.90;;;;;;4106866;28;20169;-70
2021/11/16 09:51:19;;;;;;;23.53;11.50;;;9.20;99.90;;;;;;4105878;28;20046;-62
2021/11/16 09:53:20;;;;;;;21.20;11.80;;;9.20;99.90;;;;;;4106659;28;20546;-62
2021/11/16 09:55:23;;;;;;;21.23;12.80;;;9.30;99.90;;;;;;4105551;28;20578;-60
2021/11/16 09:57:32;;;;;;;20.23;11.20;;;9.30;99.90;;;;;;4106840;28;20097;-60
2021/11/16 09:59:34;;;;;;;21.90;10.93;;;9.30;99.90;;;;;;4105677;28;20046;-65
2021/11/16 10:01:39;;;;;;;20.33;11.17;;;9.30;99.90;;;;;;4106492;28;20106;-65
2021/11/16 10:03:41;;;;;;;20.80;12.07;;;9.30;99.90;;;;;;4105493;28;20047;-61
2021/11/16 10:05:53;;;;;;;20.93;10.90;;;9.30;99.90;;;;;;4106177;28;20105;-61
2021/11/16 10:07:55;;;;;;;23.53;11.57;;;9.30;99.90;;;;;;4105011;28;20566;-61
2021/11/16 10:09:57;;;;;;;16.67;10.10;;;9.30;99.90;;;;;;4106992;28;20554;-66
2021/11/16 10:11:58;;;;;;;20.07;10.67;;;9.20;99.90;;;;;;4105629;28;20109;-61
2021/11/16 10:13:59;;;;;;;27.03;15.27;;;9.30;99.90;;;;;;4106330;28;20039;-60
2021/11/16 10:16:03;;;;;;;25.60;13.67;;;9.30;99.90;;;;;;4105996;28;20035;-61
2021/11/16 10:18:04;;;;;;;19.40;11.63;;;9.30;99.90;;;;;;4106819;28;20027;-64
2021/11/16 10:20:08;;;;;;;64.83;29.10;;;9.20;99.90;;;;;;4106596;28;20034;-67
2021/11/16 10:22:13;;;;;;;34.43;16.20;;;9.20;99.90;;;;;;4106651;28;20039;-61
2021/11/16 10:24:32;;;;;;;26.97;13.73;;;9.20;99.90;;;;;;4106171;28;20109;-62
2021/11/16 10:26:34;;;;;;;21.92;11.93;;;9.30;99.90;;;;;;4105859;28;20121;-61
2021/11/16 10:28:42;;;;;;;22.47;12.17;;;9.30;99.90;;;;;;4106750;28;20026;-61
2021/11/16 10:30:45;;;;;;;19.00;10.87;;;9.30;99.90;;;;;;4106167;28;20098;-63
2021/11/16 10:33:09;;;;;;;26.73;11.07;;;9.40;99.90;;;;;;4105985;28;20388;-65
2021/11/16 10:35:22;;;;;;;23.70;12.40;;;9.40;99.90;;;;;;4106143;28;20047;-60
2021/11/16 10:37:23;;;;;;;25.43;12.67;;;9.50;99.90;;;;;;4105670;28;20078;-60
2021/11/16 10:39:27;;;;;;;28.17;12.83;;;9.60;99.90;;;;;;4105871;28;20097;-61
2021/11/16 10:41:34;;;;;;;27.77;13.30;;;9.60;99.90;;;;;;4105287;28;20109;-60
2021/11/16 10:43:49;;;;;;;28.23;13.67;;;9.60;99.90;;;;;;4106368;28;20097;-61
2021/11/16 10:45:51;;;;;;;22.13;13.40;;;9.60;99.90;;;;;;4106487;28;20797;-61
2021/11/16 10:47:57;;;;;;;20.17;11.80;;;9.60;99.90;;;;;;4109330;28;20098;-61
2021/11/16 10:50:00;;;;;;;19.50;10.50;;;9.60;99.90;;;;;;4109406;28;20031;-61